Time;durP1;ratioP1;P1;durP2;ratioP2;P2;SDS_P1;SDS_P2;PMS_P1;PMS_P2;Temp;Humidity;BMP_temperature;BMP_pressure;BME280_temperature;BME280_humidity;BME280_pressure;Samples;Min_cycle;Max_cycle;Signal;HPM_P1;HPM_P2
2023/05/13 00:01:15;;;;;;;4.00;3.70;;;12.80;99.90;;;;;;6241762;28;20053;-82
2023/05/13 00:04:17;;;;;;;7.20;4.70;;;12.80;99.90;;;;;;6240331;28;20042;-82
2023/05/13 00:07:18;;;;;;;5.85;4.65;;;12.70;99.90;;;;;;6239243;28;20050;-81
2023/05/13 00:10:20;;;;;;;4.85;4.20;;;12.70;99.90;;;;;;6239258;28;20046;-82
2023/05/13 00:13:22;;;;;;;5.20;3.33;;;12.60;99.90;;;;;;6236661;28;20050;-81
2023/05/13 00:16:26;;;;;;;4.57;4.00;;;12.60;99.90;;;;;;6237420;28;20056;-82
2023/05/13 00:19:28;;;;;;;6.35;4.03;;;12.50;99.90;;;;;;6240683;28;20057;-81
2023/05/13 00:22:29;;;;;;;5.63;5.05;;;12.50;99.90;;;;;;6241124;28;20492;-81
2023/05/13 00:25:31;;;;;;;6.63;3.75;;;12.50;99.90;;;;;;6241893;28;20053;-81
2023/05/13 00:28:33;;;;;;;6.43;4.15;;;12.40;99.90;;;;;;6241081;28;20042;-80
2023/05/13 00:31:36;;;;;;;5.25;3.88;;;12.40;99.90;;;;;;6238801;28;20046;-81
2023/05/13 00:34:38;;;;;;;4.78;3.78;;;12.30;99.90;;;;;;6237841;28;20049;-82
2023/05/13 00:37:39;;;;;;;5.90;3.60;;;12.30;99.90;;;;;;6240490;28;20053;-81
2023/05/13 00:40:41;;;;;;;4.97;3.83;;;12.30;99.90;;;;;;6241255;28;20056;-81
2023/05/13 00:43:43;;;;;;;4.70;4.28;;;12.20;99.90;;;;;;6239804;28;20419;-80
2023/05/13 00:46:46;;;;;;;5.28;4.00;;;12.20;99.90;;;;;;6237809;28;20049;-81
2023/05/13 00:49:48;;;;;;;4.13;3.70;;;12.10;99.90;;;;;;6240317;28;20061;-82
2023/05/13 00:52:51;;;;;;;4.72;3.65;;;12.10;99.90;;;;;;6240983;28;20056;-81
2023/05/13 00:55:52;;;;;;;6.28;4.57;;;12.10;99.90;;;;;;6239387;28;20061;-81
2023/05/13 00:58:54;;;;;;;4.63;4.00;;;12.10;99.90;;;;;;6238714;28;20049;-82
2023/05/13 01:02:03;;;;;;;9.15;4.60;;;12.00;99.90;;;;;;6240233;28;20041;-81
2023/05/13 01:05:14;;;;;;;5.05;4.40;;;12.00;99.90;;;;;;6239492;28;20042;-82
2023/05/13 01:08:24;;;;;;;4.60;4.20;;;12.00;99.90;;;;;;6239644;28;20054;-82
2023/05/13 01:11:29;;;;;;;4.55;4.15;;;12.00;99.90;;;;;;6240240;28;20050;-83
2023/05/13 01:14:35;;;;;;;4.60;4.20;;;11.90;99.90;;;;;;6240312;28;20052;-81
2023/05/13 01:17:46;;;;;;;5.30;4.40;;;11.90;99.90;;;;;;6238060;28;20057;-82
2023/05/13 01:20:49;;;;;;;11.00;4.35;;;11.90;99.90;;;;;;6238797;28;20049;-82
2023/05/13 01:23:52;;;;;;;5.65;4.70;;;11.90;99.90;;;;;;6237438;28;20046;-81
2023/05/13 01:26:54;;;;;;;6.00;4.07;;;11.90;99.90;;;;;;6238820;28;20053;-82
2023/05/13 01:29:57;;;;;;;5.72;4.70;;;11.90;99.90;;;;;;6238900;28;20060;-81
2023/05/13 01:32:59;;;;;;;4.68;3.90;;;11.80;99.90;;;;;;6240228;28;20058;-81
2023/05/13 01:36:01;;;;;;;10.27;4.35;;;11.80;99.90;;;;;;6239604;28;20045;-80
2023/05/13 01:39:05;;;;;;;6.80;4.88;;;11.70;99.90;;;;;;6235354;28;20483;-82
2023/05/13 01:42:07;;;;;;;6.68;4.78;;;11.70;99.90;;;;;;6236251;28;20397;-83
2023/05/13 01:45:09;;;;;;;5.45;4.40;;;11.70;99.90;;;;;;6236366;28;20467;-82
2023/05/13 01:48:11;;;;;;;6.03;5.35;;;11.60;99.90;;;;;;6236039;28;20052;-82
2023/05/13 01:51:12;;;;;;;6.78;4.78;;;11.60;99.90;;;;;;6236724;28;20050;-81
2023/05/13 01:54:15;;;;;;;7.72;5.15;;;11.60;99.90;;;;;;6242916;28;20037;-83
2023/05/13 01:57:17;;;;;;;6.53;4.80;;;11.50;99.90;;;;;;6260537;28;20063;-82
2023/05/13 02:00:19;;;;;;;5.97;4.65;;;11.50;99.90;;;;;;6260315;28;20439;-81
2023/05/13 02:03:21;;;;;;;5.68;5.13;;;11.40;99.90;;;;;;6259816;28;20041;-82
2023/05/13 02:06:23;;;;;;;5.25;4.70;;;11.40;99.90;;;;;;6260460;28;20046;-82
2023/05/13 02:09:26;;;;;;;5.82;4.68;;;11.30;99.90;;;;;;6260883;28;20073;-82
2023/05/13 02:12:28;;;;;;;8.55;5.43;;;11.20;99.90;;;;;;6260573;28;20056;-82
2023/05/13 02:15:29;;;;;;;7.88;5.18;;;11.20;99.90;;;;;;6260534;28;20049;-82
2023/05/13 02:18:31;;;;;;;6.60;5.00;;;11.20;99.90;;;;;;6261422;28;20041;-82
2023/05/13 02:21:33;;;;;;;6.40;5.78;;;11.10;99.90;;;;;;6261451;28;20049;-83
2023/05/13 02:24:38;;;;;;;5.97;5.38;;;11.10;99.90;;;;;;6260723;28;20056;-82
2023/05/13 02:27:40;;;;;;;6.28;5.65;;;11.10;99.90;;;;;;6258529;28;20519;-81
2023/05/13 02:30:42;;;;;;;11.48;4.70;;;11.00;99.90;;;;;;6256208;28;20041;-81
2023/05/13 02:33:43;;;;;;;11.48;4.65;;;11.00;99.90;;;;;;6255086;28;20423;-81
2023/05/13 02:36:47;;;;;;;5.18;4.68;;;11.00;99.90;;;;;;6259047;28;20511;-82
2023/05/13 02:39:50;;;;;;;5.97;4.80;;;10.90;99.90;;;;;;6258479;28;20045;-82
2023/05/13 02:42:52;;;;;;;6.13;5.50;;;10.90;99.90;;;;;;6245507;28;20053;-83
2023/05/13 02:45:53;;;;;;;7.18;5.75;;;10.80;99.90;;;;;;6233643;28;20054;-82
2023/05/13 02:48:55;;;;;;;10.85;6.07;;;10.80;99.90;;;;;;6233932;28;20045;-82
2023/05/13 02:51:57;;;;;;;6.15;5.47;;;10.70;99.90;;;;;;6231893;28;20514;-81
2023/05/13 02:55:00;;;;;;;7.30;5.57;;;10.70;99.90;;;;;;6232378;28;20133;-81
2023/05/13 02:58:03;;;;;;;7.32;6.63;;;10.60;99.90;;;;;;6232839;28;20119;-82
2023/05/13 03:01:05;;;;;;;10.27;5.78;;;10.60;99.90;;;;;;6233480;28;20447;-82
2023/05/13 03:04:06;;;;;;;10.07;6.18;;;10.60;99.90;;;;;;6233316;28;20579;-83
2023/05/13 03:07:08;;;;;;;6.65;5.75;;;10.60;99.90;;;;;;6232187;28;20054;-84
2023/05/13 03:10:11;;;;;;;7.57;6.78;;;10.60;99.90;;;;;;6231651;28;20073;-82
2023/05/13 03:13:13;;;;;;;8.10;6.28;;;10.50;99.90;;;;;;6233924;28;20049;-84
2023/05/13 03:16:15;;;;;;;8.55;5.57;;;10.50;99.90;;;;;;6233333;28;20412;-83
2023/05/13 03:19:16;;;;;;;7.30;5.80;;;10.50;99.90;;;;;;6233253;28;20571;-81
2023/05/13 03:22:18;;;;;;;8.15;5.68;;;10.50;99.90;;;;;;6231414;28;20050;-81
2023/05/13 03:25:21;;;;;;;7.18;6.47;;;10.40;99.90;;;;;;6232308;28;20046;-82
2023/05/13 03:28:23;;;;;;;6.07;5.20;;;10.40;99.90;;;;;;6232768;28;20054;-83
2023/05/13 03:31:24;;;;;;;7.15;5.93;;;10.30;99.90;;;;;;6232006;28;20530;-82
2023/05/13 03:34:26;;;;;;;7.68;6.40;;;10.20;99.90;;;;;;6228287;28;20042;-82
2023/05/13 03:37:28;;;;;;;10.75;6.20;;;10.20;99.90;;;;;;6239446;28;20054;-82
2023/05/13 03:40:31;;;;;;;7.68;6.00;;;10.20;99.90;;;;;;6235358;28;20053;-85
2023/05/13 03:43:33;;;;;;;9.07;6.32;;;10.20;99.90;;;;;;6228604;28;20303;-82
2023/05/13 03:46:34;;;;;;;9.20;5.30;;;10.10;99.90;;;;;;6228498;28;20049;-82
2023/05/13 03:49:36;;;;;;;10.10;6.88;;;10.10;99.90;;;;;;6228645;28;20058;-83
2023/05/13 03:52:38;;;;;;;8.00;6.00;;;10.10;99.90;;;;;;6232346;28;20042;-82
2023/05/13 03:55:41;;;;;;;7.38;6.30;;;10.00;99.90;;;;;;6231069;28;20046;-81
2023/05/13 03:58:42;;;;;;;7.35;6.25;;;10.00;99.90;;;;;;6232588;28;20057;-81
2023/05/13 04:01:44;;;;;;;7.63;6.82;;;10.00;99.90;;;;;;6230401;28;20052;-81
2023/05/13 04:04:46;;;;;;;10.88;6.82;;;9.90;99.90;;;;;;6231993;28;20053;-81
2023/05/13 04:07:47;;;;;;;10.63;6.13;;;10.00;99.90;;;;;;6231284;28;20165;-80
2023/05/13 04:10:50;;;;;;;7.70;6.68;;;10.00;99.90;;;;;;6232172;28;20042;-80
2023/05/13 04:13:52;;;;;;;8.65;6.95;;;10.00;99.90;;;;;;6231507;28;20042;-80
2023/05/13 04:16:54;;;;;;;12.95;6.80;;;10.00;99.90;;;;;;6231469;28;20046;-81
2023/05/13 04:19:55;;;;;;;6.65;5.53;;;10.00;99.90;;;;;;6230704;28;20053;-80
2023/05/13 04:22:57;;;;;;;7.25;6.32;;;10.10;99.90;;;;;;6231683;28;20057;-81
2023/05/13 04:26:00;;;;;;;6.63;6.03;;;10.10;99.90;;;;;;6230731;28;20046;-81
2023/05/13 04:29:02;;;;;;;10.07;6.97;;;10.10;99.90;;;;;;6231419;28;20419;-81
2023/05/13 04:32:04;;;;;;;9.27;6.47;;;10.20;99.90;;;;;;6230842;28;20049;-80
2023/05/13 04:35:07;;;;;;;7.90;7.10;;;10.30;99.90;;;;;;6229807;28;20053;-81
2023/05/13 04:38:09;;;;;;;8.07;6.68;;;10.60;99.90;;;;;;6230440;28;20053;-81
2023/05/13 04:41:12;;;;;;;6.40;5.90;;;11.20;99.90;;;;;;6230639;28;20054;-81
2023/05/13 04:44:13;;;;;;;6.05;4.55;;;11.80;99.90;;;;;;6229886;28;20052;-81
2023/05/13 04:47:15;;;;;;;11.50;5.80;;;12.40;99.90;;;;;;6230639;28;20042;-81
2023/05/13 04:50:17;;;;;;;9.43;4.97;;;12.90;99.90;;;;;;6231193;28;20053;-81
2023/05/13 04:53:19;;;;;;;6.50;4.68;;;13.30;99.90;;;;;;6233199;28;20054;-81
2023/05/13 04:56:22;;;;;;;4.13;3.72;;;13.60;99.90;;;;;;6230879;28;20045;-81
2023/05/13 04:59:23;;;;;;;4.68;4.28;;;13.60;99.90;;;;;;6231580;28;20050;-81
2023/05/13 05:02:25;;;;;;;5.78;4.82;;;13.40;99.90;;;;;;6260202;22;20136;-79
2023/05/13 05:05:27;;;;;;;4.38;3.97;;;13.20;99.90;;;;;;6276113;28;20041;-78
2023/05/13 05:08:28;;;;;;;4.43;4.03;;;13.10;99.90;;;;;;6277308;28;20076;-79
2023/05/13 05:11:31;;;;;;;4.43;4.03;;;13.00;99.90;;;;;;6276657;28;20091;-78
2023/05/13 05:14:33;;;;;;;4.55;3.55;;;13.10;99.90;;;;;;6254744;28;20046;-79
2023/05/13 05:17:35;;;;;;;4.72;4.03;;;13.30;99.90;;;;;;6252322;28;20049;-82
2023/05/13 05:20:38;;;;;;;5.35;4.90;;;13.30;99.90;;;;;;6253172;28;20160;-79
2023/05/13 05:23:40;;;;;;;3.78;3.47;;;13.50;99.90;;;;;;6255095;28;20052;-80
2023/05/13 05:26:43;;;;;;;3.97;3.40;;;13.70;99.90;;;;;;6252839;28;20058;-79
2023/05/13 05:29:44;;;;;;;5.97;3.63;;;14.00;99.90;;;;;;6251941;28;20042;-80
2023/05/13 05:32:46;;;;;;;3.10;2.90;;;14.30;99.90;;;;;;6252443;28;20096;-82
2023/05/13 05:35:48;;;;;;;3.67;3.38;;;14.60;99.90;;;;;;6252104;28;20046;-79
2023/05/13 05:38:50;;;;;;;4.57;2.85;;;14.90;99.90;;;;;;6252524;28;20045;-79
2023/05/13 05:41:53;;;;;;;3.80;3.50;;;15.30;99.90;;;;;;6253179;28;20065;-78
2023/05/13 05:44:54;;;;;;;6.60;4.65;;;15.70;99.90;;;;;;6252831;28;20049;-83
2023/05/13 05:47:56;;;;;;;4.22;3.30;;;16.40;99.90;;;;;;6253013;28;20045;-80
2023/05/13 05:50:58;;;;;;;3.25;2.95;;;17.50;99.90;;;;;;6251484;28;20073;-81
2023/05/13 05:54:00;;;;;;;3.45;3.03;;;18.50;99.90;;;;;;6252955;28;20041;-82
2023/05/13 05:57:03;;;;;;;3.15;2.88;;;19.10;99.90;;;;;;6252166;28;20507;-83
2023/05/13 06:00:06;;;;;;;4.60;2.92;;;19.70;99.90;;;;;;6251872;28;20481;-80
2023/05/13 06:03:07;;;;;;;6.25;3.17;;;19.90;99.90;;;;;;6250107;28;20056;-79
2023/05/13 06:06:09;;;;;;;3.95;3.22;;;20.20;99.90;;;;;;6251680;28;20410;-80
2023/05/13 06:09:11;;;;;;;3.35;3.05;;;20.50;99.90;;;;;;6253612;28;20056;-81
2023/05/13 06:12:14;;;;;;;5.53;3.13;;;20.70;99.90;;;;;;6254820;28;20061;-86
2023/05/13 06:15:15;;;;;;;2.97;2.78;;;20.80;99.90;;;;;;6255822;28;20038;-82
2023/05/13 06:18:17;;;;;;;2.63;2.42;;;20.80;99.90;;;;;;6256683;28;20053;-83
2023/05/13 06:21:19;;;;;;;3.70;2.70;;;20.90;99.90;;;;;;6257798;28;20060;-81
2023/05/13 06:24:21;;;;;;;4.65;3.65;;;21.10;99.90;;;;;;6255842;28;20120;-83
2023/05/13 06:27:26;;;;;;;2.17;1.98;;;21.30;99.90;;;;;;6257975;28;20046;-81
2023/05/13 06:30:28;;;;;;;3.72;2.65;;;21.50;99.90;;;;;;6260381;28;20049;-82
2023/05/13 06:33:30;;;;;;;3.88;2.35;;;21.80;99.90;;;;;;6255845;28;20714;-79
2023/05/13 06:36:32;;;;;;;6.07;2.92;;;21.90;99.90;;;;;;6252175;28;20049;-83
2023/05/13 06:39:33;;;;;;;3.50;2.53;;;22.30;99.90;;;;;;6255445;28;20048;-84
2023/05/13 06:42:39;;;;;;;5.57;2.95;;;22.60;99.90;;;;;;6257190;28;20565;-81
2023/05/13 06:45:41;;;;;;;5.65;2.78;;;22.80;99.90;;;;;;6255877;28;20053;-81
2023/05/13 06:48:43;;;;;;;3.90;2.10;;;22.90;99.90;;;;;;6256722;28;20419;-80
2023/05/13 06:51:44;;;;;;;3.03;2.72;;;23.10;99.90;;;;;;6252522;28;20053;-81
2023/05/13 06:54:47;;;;;;;2.53;2.33;;;23.00;99.50;;;;;;6248880;28;20041;-83
2023/05/13 06:57:50;;;;;;;3.22;2.80;;;22.70;98.50;;;;;;6250855;28;20617;-81
2023/05/13 07:00:52;;;;;;;3.15;2.85;;;22.70;97.90;;;;;;6253404;28;20060;-79
2023/05/13 07:03:53;;;;;;;2.60;2.40;;;22.40;98.00;;;;;;6252281;28;20060;-81
2023/05/13 07:06:57;;;;;;;3.30;2.50;;;22.40;97.50;;;;;;6250985;28;20060;-82
2023/05/13 07:10:00;;;;;;;2.83;2.60;;;22.60;97.50;;;;;;6218148;28;20056;-80
2023/05/13 07:13:07;;;;;;;2.20;2.03;;;22.90;96.70;;;;;;6247952;28;20053;-79
2023/05/13 07:16:10;;;;;;;3.25;2.95;;;23.20;96.60;;;;;;6253967;28;20606;-82
2023/05/13 07:19:12;;;;;;;3.65;2.05;;;23.70;97.00;;;;;;6239308;28;20437;-80
2023/05/13 07:22:13;;;;;;;2.90;2.47;;;24.30;96.40;;;;;;6224979;28;20046;-79
2023/05/13 07:25:15;;;;;;;1.92;1.80;;;24.60;94.80;;;;;;6224963;28;20364;-81
2023/05/13 07:28:29;;;;;;;2.88;2.67;;;24.80;94.20;;;;;;6235031;28;20045;-81
2023/05/13 07:31:33;;;;;;;4.13;2.65;;;24.70;92.80;;;;;;6248662;28;20511;-80
2023/05/13 07:34:34;;;;;;;2.65;2.45;;;24.50;92.30;;;;;;6237342;28;20052;-84
2023/05/13 07:37:36;;;;;;;4.20;2.92;;;24.10;92.00;;;;;;6220670;28;20056;-81
2023/05/13 07:40:39;;;;;;;3.70;2.60;;;23.50;91.80;;;;;;6218655;28;20119;-81
2023/05/13 07:43:42;;;;;;;2.30;2.10;;;23.30;92.10;;;;;;6216647;28;20045;-80
2023/05/13 07:46:44;;;;;;;10.50;2.95;;;23.60;91.70;;;;;;6231355;28;20041;-82
2023/05/13 07:49:46;;;;;;;3.42;3.10;;;23.80;91.00;;;;;;6246097;28;20045;-78
2023/05/13 07:52:48;;;;;;;4.22;2.88;;;23.90;89.80;;;;;;6246723;28;20418;-83
2023/05/13 07:55:50;;;;;;;2.55;2.13;;;23.30;89.10;;;;;;6219408;28;21303;-81
2023/05/13 08:03:42;;;;;;;3.10;2.80;;;21.80;86.90;;;;;;6104709;28;20055;-79
2023/05/13 08:06:43;;;;;;;3.20;2.90;;;21.10;89.10;;;;;;6222985;28;20499;-82
2023/05/13 08:09:45;;;;;;;3.58;3.28;;;20.80;88.30;;;;;;6239433;28;20060;-82
2023/05/13 08:12:52;;;;;;;3.83;3.53;;;20.20;88.30;;;;;;6239475;28;20056;-85
2023/05/13 08:15:54;;;;;;;4.65;3.30;;;19.70;89.20;;;;;;6234714;28;20041;-78
2023/05/13 08:18:57;;;;;;;4.57;3.72;;;19.10;89.30;;;;;;6238290;28;20049;-81
2023/05/13 08:21:59;;;;;;;5.00;3.38;;;18.50;90.60;;;;;;6236905;28;20391;-81
2023/05/13 08:25:00;;;;;;;4.60;3.22;;;18.30;91.10;;;;;;6236236;28;20049;-78
2023/05/13 08:28:03;;;;;;;7.00;3.60;;;18.10;91.30;;;;;;6234464;28;20060;-78
2023/05/13 08:31:04;;;;;;;3.70;3.28;;;17.90;91.70;;;;;;6235867;28;20041;-77
2023/05/13 08:34:07;;;;;;;5.00;3.38;;;17.60;92.10;;;;;;6237670;28;20070;-81
2023/05/13 08:37:09;;;;;;;4.38;3.65;;;17.50;92.50;;;;;;6236771;28;20049;-80
2023/05/13 08:40:12;;;;;;;8.60;4.28;;;17.50;92.80;;;;;;6241633;28;20042;-80
2023/05/13 08:43:15;;;;;;;3.53;3.22;;;17.40;93.30;;;;;;6245514;28;20041;-81
2023/05/13 08:46:19;;;;;;;6.10;2.75;;;17.50;93.60;;;;;;6242095;28;20065;-79
2023/05/13 08:49:22;;;;;;;4.82;3.85;;;17.60;93.60;;;;;;6240848;28;20057;-81
2023/05/13 08:52:25;;;;;;;3.28;2.97;;;17.70;93.60;;;;;;6220162;28;20415;-78
2023/05/13 08:55:27;;;;;;;5.68;3.30;;;17.70;93.60;;;;;;6233103;28;20069;-77
2023/05/13 08:58:29;;;;;;;7.05;2.72;;;17.70;93.60;;;;;;6238002;28;20038;-78
2023/05/13 09:01:31;;;;;;;4.50;3.33;;;17.90;93.70;;;;;;6238951;28;20053;-78
2023/05/13 09:04:36;;;;;;;3.53;3.03;;;18.20;93.70;;;;;;6248540;28;20047;-77
2023/05/13 09:07:39;;;;;;;4.63;3.65;;;18.50;93.40;;;;;;6252544;28;20392;-78
2023/05/13 09:10:41;;;;;;;6.07;3.35;;;18.80;93.30;;;;;;6250546;28;20046;-79
2023/05/13 09:13:43;;;;;;;4.82;3.20;;;19.10;93.20;;;;;;6251549;28;20044;-79
2023/05/13 09:16:45;;;;;;;5.22;3.45;;;19.40;93.00;;;;;;6248133;28;20037;-82
2023/05/13 09:19:48;;;;;;;6.57;3.35;;;19.50;92.30;;;;;;6249011;28;20041;-80
2023/05/13 09:22:51;;;;;;;4.45;3.22;;;19.50;92.10;;;;;;6251268;28;20046;-86
2023/05/13 09:25:53;;;;;;;3.85;3.42;;;19.60;92.40;;;;;;6254659;28;20056;-80
2023/05/13 09:29:15;;;;;;;3.88;3.17;;;19.70;91.90;;;;;;6250798;28;20042;-79
2023/05/13 09:32:16;;;;;;;4.25;2.60;;;19.60;91.90;;;;;;6248421;28;20057;-79
2023/05/13 09:35:20;;;;;;;3.47;3.05;;;19.70;91.60;;;;;;6249155;28;20060;-80
2023/05/13 09:38:25;;;;;;;3.25;2.95;;;19.80;91.70;;;;;;6248627;28;20041;-78
2023/05/13 09:41:27;;;;;;;3.42;3.17;;;20.00;91.40;;;;;;6246701;28;20049;-79
2023/05/13 09:44:29;;;;;;;3.10;2.83;;;20.10;90.80;;;;;;6251525;28;20045;-79
2023/05/13 09:47:31;;;;;;;6.45;2.85;;;19.90;90.50;;;;;;6249939;28;20414;-79
2023/05/13 09:50:34;;;;;;;3.95;3.20;;;19.90;90.80;;;;;;6248159;28;20057;-79
2023/05/13 09:53:35;;;;;;;3.67;3.30;;;20.10;90.90;;;;;;6247067;28;20049;-81
2023/05/13 09:56:37;;;;;;;3.53;2.80;;;20.00;90.20;;;;;;6245020;28;20045;-81
2023/05/13 09:59:39;;;;;;;3.85;2.55;;;19.80;90.50;;;;;;6245448;28;20044;-78
2023/05/13 10:02:41;;;;;;;3.40;2.72;;;19.90;90.70;;;;;;6245586;28;20049;-78
2023/05/13 10:05:45;;;;;;;3.78;3.47;;;20.00;90.50;;;;;;6246613;28;20045;-79
2023/05/13 10:08:49;;;;;;;3.22;3.00;;;20.20;90.30;;;;;;6248974;28;20060;-79
2023/05/13 10:11:51;;;;;;;4.07;2.80;;;20.10;90.10;;;;;;6249682;28;20053;-78
2023/05/13 10:14:54;;;;;;;3.85;1.90;;;20.10;90.30;;;;;;6249922;28;20071;-78
2023/05/13 10:18:10;;;;;;;3.15;2.83;;;20.20;89.30;;;;;;6249091;28;20053;-77
2023/05/13 10:21:14;;;;;;;2.63;2.05;;;20.10;88.50;;;;;;6245819;28;20048;-79
2023/05/13 10:24:16;;;;;;;3.00;2.75;;;20.10;88.80;;;;;;6248992;28;20048;-80
2023/05/13 10:27:21;;;;;;;2.67;2.00;;;20.10;88.20;;;;;;6247064;28;20184;-81
2023/05/13 10:30:26;;;;;;;2.85;1.65;;;20.20;87.00;;;;;;6243223;28;20053;-78
2023/05/13 10:33:30;;;;;;;6.30;2.35;;;19.80;86.50;;;;;;6243195;28;20056;-82
2023/05/13 10:36:56;;;;;;;3.90;2.67;;;19.70;87.00;;;;;;6245226;28;20387;-76
2023/05/13 10:40:29;;;;;;;4.80;2.15;;;19.70;87.30;;;;;;6251300;28;20041;-78
2023/05/13 10:43:35;;;;;;;1.80;1.70;;;19.70;87.00;;;;;;6257266;28;20041;-79
2023/05/13 10:46:38;;;;;;;1.90;1.80;;;19.40;86.50;;;;;;6258441;28;20053;-78
2023/05/13 10:49:40;;;;;;;4.03;2.20;;;19.30;87.20;;;;;;6252627;28;20050;-78
2023/05/13 10:52:50;;;;;;;4.70;2.28;;;19.10;87.10;;;;;;6260383;28;20057;-84
2023/05/13 10:55:59;;;;;;;2.28;2.08;;;19.20;87.80;;;;;;6252884;28;20471;-79
2023/05/13 10:59:04;;;;;;;4.25;2.35;;;19.20;87.00;;;;;;6259409;28;20041;-78
2023/05/13 11:06:03;;;;;;;2.10;1.92;;;18.90;87.20;;;;;;6245770;28;20099;-80
2023/05/13 11:09:13;;;;;;;3.47;1.92;;;18.80;87.80;;;;;;6244901;28;20061;-77
2023/05/13 11:12:27;;;;;;;4.35;2.53;;;18.90;88.30;;;;;;6248040;28;20065;-79
2023/05/13 11:15:54;;;;;;;3.20;1.85;;;18.90;88.10;;;;;;6244455;28;20503;-78
2023/05/13 11:18:56;;;;;;;3.72;2.05;;;19.00;87.80;;;;;;6245494;28;20126;-77
2023/05/13 11:22:08;;;;;;;2.42;2.00;;;19.00;87.90;;;;;;6240957;28;20407;-77
2023/05/13 11:25:13;;;;;;;8.23;2.60;;;19.00;87.90;;;;;;6245610;28;20048;-77
2023/05/13 11:28:17;;;;;;;4.22;2.25;;;19.10;89.10;;;;;;6244272;28;20045;-80
2023/05/13 11:31:20;;;;;;;3.20;2.00;;;19.30;89.10;;;;;;6242724;28;20049;-83
2023/05/13 11:34:23;;;;;;;2.28;2.00;;;19.50;88.80;;;;;;6241399;28;20128;-78
2023/05/13 11:37:25;;;;;;;6.07;1.90;;;19.70;88.00;;;;;;6242995;28;20050;-76
2023/05/13 11:40:29;;;;;;;4.03;1.75;;;19.70;87.50;;;;;;6242377;28;20048;-77
2023/05/13 11:43:32;;;;;;;2.20;2.00;;;19.80;87.40;;;;;;6242842;28;20500;-78
2023/05/13 11:46:34;;;;;;;3.42;2.03;;;19.90;87.40;;;;;;6242636;28;20034;-83
2023/05/13 11:49:38;;;;;;;2.60;2.33;;;20.10;86.80;;;;;;6241960;28;20443;-80
2023/05/13 11:52:42;;;;;;;4.70;2.42;;;20.10;86.50;;;;;;6241762;28;20041;-77
2023/05/13 11:55:45;;;;;;;6.00;2.20;;;20.30;86.40;;;;;;6246395;28;20041;-79
2023/05/13 11:58:47;;;;;;;2.03;1.90;;;20.40;85.80;;;;;;6245818;28;20515;-78
2023/05/13 12:01:59;;;;;;;8.10;3.08;;;20.60;85.50;;;;;;6245218;28;20045;-78
2023/05/13 12:05:03;;;;;;;2.50;2.30;;;20.70;84.60;;;;;;6245475;28;20052;-78
2023/05/13 12:08:09;;;;;;;1.90;1.77;;;20.70;84.20;;;;;;6242648;28;20063;-79
2023/05/13 12:11:15;;;;;;;4.25;2.53;;;20.70;84.20;;;;;;6247904;28;20056;-79
2023/05/13 12:14:18;;;;;;;2.70;2.10;;;20.80;84.40;;;;;;6253848;28;20057;-79
2023/05/13 12:17:21;;;;;;;1.75;1.65;;;21.10;83.70;;;;;;6251112;28;20463;-78
2023/05/13 12:20:24;;;;;;;2.08;1.88;;;21.60;82.90;;;;;;6245183;28;20053;-79
2023/05/13 12:23:42;;;;;;;2.17;1.98;;;21.80;81.40;;;;;;6237737;28;20061;-80
2023/05/13 12:26:58;;;;;;;2.30;1.85;;;21.70;80.50;;;;;;6235536;28;20049;-83
2023/05/13 12:30:01;;;;;;;2.55;1.88;;;21.40;80.40;;;;;;6238772;28;20068;-78
2023/05/13 12:33:11;;;;;;;2.65;2.28;;;21.10;81.50;;;;;;6237327;28;20053;-77
2023/05/13 12:36:18;;;;;;;3.97;2.55;;;21.10;82.30;;;;;;6239061;28;20523;-77
2023/05/13 12:39:22;;;;;;;4.53;2.20;;;21.10;81.90;;;;;;6233781;28;20050;-78
2023/05/13 12:42:25;;;;;;;2.15;1.95;;;21.40;82.00;;;;;;6232229;28;20042;-79
2023/05/13 12:45:30;;;;;;;3.58;1.98;;;21.70;81.40;;;;;;6219243;28;20053;-78
2023/05/13 12:48:33;;;;;;;2.55;2.35;;;22.00;81.00;;;;;;6248217;28;20107;-79
2023/05/13 12:51:34;;;;;;;2.72;2.20;;;22.30;80.50;;;;;;6225581;28;20049;-81
2023/05/13 12:54:36;;;;;;;2.67;2.45;;;22.40;79.50;;;;;;6217376;28;20045;-80
2023/05/13 12:57:40;;;;;;;3.10;2.60;;;22.10;79.20;;;;;;6219007;28;20046;-84
2023/05/13 13:00:42;;;;;;;3.10;2.80;;;22.10;79.00;;;;;;6218910;28;20053;-78
2023/05/13 13:03:43;;;;;;;2.65;2.45;;;22.10;79.50;;;;;;6217536;28;20041;-79
2023/05/13 13:06:45;;;;;;;3.45;2.40;;;22.00;78.80;;;;;;6228747;28;20034;-78
2023/05/13 13:09:47;;;;;;;2.78;2.40;;;21.60;78.50;;;;;;6234441;28;20095;-78
2023/05/13 13:12:51;;;;;;;3.42;2.10;;;21.50;79.10;;;;;;6238296;28;20045;-78
2023/05/13 13:15:53;;;;;;;2.55;2.35;;;21.50;79.20;;;;;;6237480;28;20053;-79
2023/05/13 13:18:57;;;;;;;2.65;2.45;;;21.50;79.60;;;;;;6237003;28;20045;-78
2023/05/13 13:21:59;;;;;;;2.97;2.67;;;21.60;79.40;;;;;;6239218;28;20119;-80
2023/05/13 13:25:01;;;;;;;4.43;2.40;;;21.50;79.70;;;;;;6239464;28;21327;-80
2023/05/13 13:28:04;;;;;;;2.47;2.28;;;21.40;79.30;;;;;;6255492;23;20050;-81
2023/05/13 13:31:06;;;;;;;3.00;2.80;;;21.30;80.10;;;;;;6218933;28;20055;-82
2023/05/13 13:34:10;;;;;;;2.95;2.70;;;21.20;79.80;;;;;;6222711;28;20048;-80
2023/05/13 13:37:12;;;;;;;4.03;2.38;;;21.20;79.90;;;;;;6224372;28;20104;-80
2023/05/13 13:40:14;;;;;;;3.88;2.65;;;21.20;80.00;;;;;;6213618;28;20057;-82
2023/05/13 13:43:18;;;;;;;2.42;2.22;;;21.10;79.90;;;;;;6219332;28;20050;-82
2023/05/13 13:46:20;;;;;;;2.38;2.10;;;21.10;80.20;;;;;;6212880;28;20105;-83
2023/05/13 13:49:22;;;;;;;2.72;2.50;;;21.30;80.00;;;;;;6218534;28;20050;-84
2023/05/13 13:52:26;;;;;;;2.95;2.60;;;21.40;79.40;;;;;;6221181;28;20046;-82
2023/05/13 13:55:28;;;;;;;3.08;2.45;;;21.50;79.20;;;;;;6217148;28;20131;-83
2023/05/13 13:58:31;;;;;;;2.53;2.30;;;21.40;78.60;;;;;;6218400;28;20050;-82
2023/05/13 14:01:33;;;;;;;3.65;2.13;;;21.20;78.60;;;;;;6217794;28;20061;-83
2023/05/13 14:04:34;;;;;;;4.82;2.58;;;21.30;78.60;;;;;;6222164;28;20058;-83
2023/05/13 14:07:36;;;;;;;2.25;2.03;;;21.40;78.50;;;;;;6215223;28;20050;-82
2023/05/13 14:10:38;;;;;;;2.53;1.90;;;21.40;78.00;;;;;;6212840;28;20060;-82
2023/05/13 14:13:41;;;;;;;2.28;2.08;;;21.30;77.90;;;;;;6214081;28;20496;-81
2023/05/13 14:16:43;;;;;;;2.60;2.40;;;21.20;78.40;;;;;;6217733;28;20042;-81
2023/05/13 14:19:45;;;;;;;2.22;2.03;;;21.40;77.70;;;;;;6217076;28;20050;-81
2023/05/13 14:22:47;;;;;;;3.35;2.80;;;21.20;77.30;;;;;;6212925;28;20125;-82
2023/05/13 14:25:48;;;;;;;1.73;1.63;;;21.00;77.20;;;;;;6218732;28;20493;-82
2023/05/13 14:28:51;;;;;;;2.38;2.17;;;20.80;77.50;;;;;;6216905;28;20050;-81
2023/05/13 14:31:53;;;;;;;4.28;2.10;;;20.50;77.70;;;;;;6211424;28;20045;-81
2023/05/13 14:34:55;;;;;;;1.92;1.83;;;20.30;78.70;;;;;;6210983;28;20049;-83
2023/05/13 14:37:56;;;;;;;2.63;2.42;;;20.50;79.20;;;;;;6214849;28;20043;-82
2023/05/13 14:40:58;;;;;;;3.45;1.83;;;20.90;78.90;;;;;;6215981;28;20053;-83
2023/05/13 14:44:01;;;;;;;8.23;2.95;;;21.10;78.30;;;;;;6215382;28;20054;-82
2023/05/13 14:47:03;;;;;;;2.55;2.30;;;21.20;78.20;;;;;;6215343;28;20396;-82
2023/05/13 14:50:06;;;;;;;2.33;1.88;;;21.00;77.60;;;;;;6214571;28;20054;-82
2023/05/13 14:53:07;;;;;;;2.20;1.98;;;20.70;78.30;;;;;;6214461;28;20058;-82
2023/05/13 14:56:09;;;;;;;2.35;2.15;;;20.40;78.90;;;;;;6216462;28;20042;-82
2023/05/13 14:59:12;;;;;;;4.55;2.00;;;20.50;79.40;;;;;;6210358;28;20046;-83
2023/05/13 15:02:16;;;;;;;2.72;2.17;;;20.60;79.60;;;;;;6210424;28;20042;-82
2023/05/13 15:05:17;;;;;;;7.38;2.33;;;20.90;79.70;;;;;;6212440;28;20050;-82
2023/05/13 15:08:19;;;;;;;2.50;2.30;;;20.70;79.30;;;;;;6216957;28;20049;-82
2023/05/13 15:11:22;;;;;;;3.63;2.55;;;20.60;80.10;;;;;;6211614;28;20072;-81
2023/05/13 15:14:25;;;;;;;2.17;1.98;;;20.60;80.30;;;;;;6207400;28;20057;-81
2023/05/13 15:17:27;;;;;;;2.30;2.08;;;20.70;80.00;;;;;;6208959;28;20066;-80
2023/05/13 15:20:28;;;;;;;2.33;2.13;;;20.80;79.80;;;;;;6211199;28;20050;-80
2023/05/13 15:23:30;;;;;;;2.22;2.03;;;20.70;80.30;;;;;;6209975;28;20204;-80
2023/05/13 15:26:32;;;;;;;2.03;1.92;;;20.80;79.80;;;;;;6214978;28;20049;-80
2023/05/13 15:29:35;;;;;;;2.20;2.10;;;20.90;78.90;;;;;;6217466;28;20054;-81
2023/05/13 15:32:36;;;;;;;1.85;1.65;;;21.00;78.50;;;;;;6203094;28;20057;-82
2023/05/13 15:35:40;;;;;;;1.90;1.80;;;21.00;77.90;;;;;;6193380;28;20054;-81
2023/05/13 15:38:42;;;;;;;6.15;2.00;;;20.80;77.90;;;;;;6197568;28;20057;-81
2023/05/13 15:41:44;;;;;;;4.82;2.83;;;20.80;78.30;;;;;;6193570;28;20078;-81
2023/05/13 15:44:47;;;;;;;3.67;2.10;;;20.90;78.70;;;;;;6194931;28;20054;-82
2023/05/13 15:47:49;;;;;;;2.10;1.90;;;20.90;78.30;;;;;;6194361;28;20104;-81
2023/05/13 15:50:51;;;;;;;2.00;1.88;;;20.70;78.70;;;;;;6198835;28;20678;-81
2023/05/13 15:53:52;;;;;;;3.22;1.85;;;20.50;78.90;;;;;;6206726;28;20432;-80
2023/05/13 15:56:55;;;;;;;1.98;1.80;;;20.20;79.50;;;;;;6210970;28;20390;-81
2023/05/13 15:59:58;;;;;;;3.45;1.98;;;19.90;79.70;;;;;;6208635;28;20053;-81